Time;durP1;ratioP1;P1;durP2;ratioP2;P2;SDS_P1;SDS_P2;PMS_P1;PMS_P2;Temp;Humidity;BMP_temperature;BMP_pressure;BME280_temperature;BME280_humidity;BME280_pressure;Samples;Min_cycle;Max_cycle;Signal;HPM_P1;HPM_P2
2021/01/25 00:00:09;;;;;;;8.17;4.13;;;1.70;83.80;;;;;;5042623;28;20412;-82
2021/01/25 00:02:35;;;;;;;10.77;4.50;;;1.80;83.70;;;;;;5042132;28;20440;-82
2021/01/25 00:05:01;;;;;;;12.17;6.03;;;1.80;83.00;;;;;;5042543;28;20183;-82
2021/01/25 00:07:27;;;;;;;11.63;6.70;;;1.70;82.60;;;;;;5041936;28;20536;-83
2021/01/25 00:09:52;;;;;;;7.87;4.20;;;1.70;82.80;;;;;;5042840;28;20957;-82
2021/01/25 00:12:18;;;;;;;12.23;4.97;;;1.80;83.00;;;;;;5041839;28;20182;-82
2021/01/25 00:14:44;;;;;;;9.07;5.20;;;1.80;82.80;;;;;;5042002;28;20177;-82
2021/01/25 00:17:09;;;;;;;8.33;5.17;;;1.80;82.10;;;;;;5041686;28;20420;-83
2021/01/25 00:19:35;;;;;;;13.43;5.13;;;1.80;83.00;;;;;;5042175;28;20177;-83
2021/01/25 00:22:01;;;;;;;11.50;6.23;;;1.80;82.70;;;;;;5040839;28;20517;-82
2021/01/25 00:24:27;;;;;;;9.57;5.87;;;1.80;83.40;;;;;;5041019;28;20420;-83
2021/01/25 00:26:52;;;;;;;13.20;6.57;;;1.80;82.80;;;;;;5041654;28;20253;-82
2021/01/25 00:29:18;;;;;;;8.60;5.90;;;1.90;82.10;;;;;;5040789;28;20432;-82
2021/01/25 00:31:44;;;;;;;13.50;5.47;;;1.80;82.10;;;;;;5041611;28;20515;-82
2021/01/25 00:34:09;;;;;;;6.00;4.07;;;1.80;82.40;;;;;;5041259;28;20654;-83
2021/01/25 00:36:35;;;;;;;13.70;5.17;;;1.70;82.60;;;;;;5041168;28;20205;-82
2021/01/25 00:39:01;;;;;;;16.23;6.23;;;1.70;82.10;;;;;;5042034;28;20198;-82
2021/01/25 00:41:27;;;;;;;11.57;5.10;;;1.60;83.00;;;;;;5042003;28;20182;-83
2021/01/25 00:43:53;;;;;;;15.38;5.00;;;1.60;83.30;;;;;;5041891;28;20423;-83
2021/01/25 00:46:19;;;;;;;8.83;4.00;;;1.60;83.00;;;;;;5041403;28;20170;-83
2021/01/25 00:48:44;;;;;;;10.40;4.27;;;1.60;82.60;;;;;;5041336;28;20847;-82
2021/01/25 00:51:10;;;;;;;7.57;3.80;;;1.70;82.10;;;;;;5041908;28;20459;-82
2021/01/25 00:53:36;;;;;;;10.23;4.40;;;1.70;81.60;;;;;;5041577;28;20217;-83
2021/01/25 00:56:02;;;;;;;9.17;4.03;;;1.60;81.40;;;;;;5041498;28;20232;-82
2021/01/25 00:58:28;;;;;;;6.17;3.63;;;1.60;80.90;;;;;;5040845;28;20484;-82
2021/01/25 01:00:53;;;;;;;6.20;3.80;;;1.60;80.50;;;;;;5040933;28;20444;-82
2021/01/25 01:03:19;;;;;;;5.30;3.10;;;1.60;81.40;;;;;;5040760;28;20544;-82
2021/01/25 01:05:45;;;;;;;10.50;3.90;;;1.60;81.60;;;;;;5042418;28;20208;-83
2021/01/25 01:08:10;;;;;;;9.90;4.00;;;1.60;80.90;;;;;;5039617;28;20236;-82
2021/01/25 01:10:36;;;;;;;6.43;3.20;;;1.70;80.80;;;;;;5041033;28;20185;-85
2021/01/25 01:13:02;;;;;;;7.10;3.17;;;1.70;80.30;;;;;;5038780;28;20226;-85
2021/01/25 01:15:28;;;;;;;13.50;3.50;;;1.70;77.70;;;;;;5038904;28;20250;-85
2021/01/25 01:17:54;;;;;;;8.00;3.07;;;1.80;79.20;;;;;;5038702;28;20445;-85
2021/01/25 01:20:19;;;;;;;6.37;3.43;;;1.80;79.10;;;;;;5038022;28;20185;-85
2021/01/25 01:22:45;;;;;;;5.90;3.40;;;1.90;79.50;;;;;;5038185;28;20448;-85
2021/01/25 01:25:11;;;;;;;8.98;3.67;;;1.90;79.10;;;;;;5038613;28;20175;-85
2021/01/25 01:27:37;;;;;;;7.13;3.87;;;1.90;80.10;;;;;;5038894;28;20206;-85
2021/01/25 01:30:07;;;;;;;5.23;2.87;;;2.00;79.50;;;;;;5038305;28;20502;-85
2021/01/25 01:32:34;;;;;;;7.97;3.85;;;2.00;79.60;;;;;;5038554;28;20181;-85
2021/01/25 01:35:00;;;;;;;8.07;3.47;;;2.00;79.10;;;;;;5039260;28;20174;-85
2021/01/25 01:37:26;;;;;;;7.60;3.55;;;2.00;78.80;;;;;;5038496;28;20194;-84
2021/01/25 01:39:51;;;;;;;10.87;3.47;;;2.10;79.10;;;;;;5039045;28;20178;-85
2021/01/25 01:42:18;;;;;;;9.47;3.83;;;2.10;79.20;;;;;;5038738;28;20215;-85
2021/01/25 01:44:44;;;;;;;10.93;3.42;;;2.20;79.10;;;;;;5038500;28;20177;-85
2021/01/25 01:47:18;;;;;;;4.65;3.10;;;2.10;79.10;;;;;;5038320;28;20701;-85
2021/01/25 01:49:44;;;;;;;7.28;3.85;;;2.00;79.60;;;;;;5038509;28;20614;-85
2021/01/25 01:52:10;;;;;;;7.97;4.28;;;2.00;79.90;;;;;;5038070;28;20665;-85
2021/01/25 01:54:37;;;;;;;6.32;3.20;;;1.90;80.90;;;;;;5038389;28;20178;-85
2021/01/25 01:57:04;;;;;;;8.50;3.58;;;2.00;80.30;;;;;;5038547;28;20169;-85
2021/01/25 01:59:30;;;;;;;6.93;3.50;;;2.00;80.30;;;;;;5038614;28;20228;-85
2021/01/25 02:01:55;;;;;;;5.13;2.70;;;2.00;80.90;;;;;;5038458;28;20206;-84
2021/01/25 02:04:21;;;;;;;5.30;3.50;;;2.10;80.50;;;;;;5037840;28;20314;-85
2021/01/25 02:06:49;;;;;;;8.53;3.10;;;2.10;80.20;;;;;;5038529;28;20178;-85
2021/01/25 02:09:16;;;;;;;6.68;2.90;;;2.10;80.20;;;;;;5038078;28;21099;-85
2021/01/25 02:11:43;;;;;;;7.72;3.88;;;2.10;80.60;;;;;;5037408;28;20174;-85
2021/01/25 02:14:09;;;;;;;5.78;3.40;;;2.10;80.60;;;;;;5037922;28;20173;-84
2021/01/25 02:16:42;;;;;;;5.65;2.90;;;2.10;80.30;;;;;;5037999;28;20598;-81
2021/01/25 02:19:33;;;;;;;15.15;3.50;;;2.20;80.50;;;;;;5040013;28;20198;-81
2021/01/25 02:22:20;;;;;;;7.93;3.40;;;2.20;80.60;;;;;;5040202;28;20193;-81
2021/01/25 02:25:01;;;;;;;6.13;2.80;;;2.20;80.80;;;;;;5039361;28;20182;-81
2021/01/25 02:27:31;;;;;;;12.10;3.45;;;2.20;80.80;;;;;;5040537;28;20189;-81
2021/01/25 02:29:59;;;;;;;6.70;3.22;;;2.30;80.80;;;;;;5023014;28;20206;-81
2021/01/25 02:32:26;;;;;;;7.53;3.72;;;2.30;81.00;;;;;;5038973;28;20257;-81
2021/01/25 02:34:53;;;;;;;12.35;3.15;;;2.30;81.20;;;;;;5038652;28;20174;-83
2021/01/25 02:37:20;;;;;;;8.60;3.30;;;2.30;81.30;;;;;;5038936;28;20626;-81
2021/01/25 02:39:48;;;;;;;10.85;3.15;;;2.40;81.60;;;;;;5038987;28;20264;-81
2021/01/25 02:42:14;;;;;;;6.18;3.35;;;2.40;81.90;;;;;;5039043;28;20245;-81
2021/01/25 02:44:41;;;;;;;10.48;3.25;;;2.40;82.10;;;;;;5039176;28;20170;-81
2021/01/25 02:47:09;;;;;;;9.05;4.43;;;2.50;82.10;;;;;;5039277;28;20241;-81
2021/01/25 02:49:35;;;;;;;5.70;2.97;;;2.50;81.90;;;;;;5038603;28;20174;-81
2021/01/25 02:52:03;;;;;;;6.05;3.03;;;2.50;82.30;;;;;;5038461;28;20227;-81
2021/01/25 02:54:29;;;;;;;8.80;3.35;;;2.50;82.70;;;;;;5038312;28;20170;-81
2021/01/25 02:56:55;;;;;;;7.37;2.90;;;2.50;83.00;;;;;;5037811;28;20228;-81
2021/01/25 02:59:21;;;;;;;9.13;3.43;;;2.60;82.80;;;;;;5038275;28;20228;-81
2021/01/25 03:01:47;;;;;;;3.95;2.05;;;2.60;83.00;;;;;;5037890;28;21052;-81
2021/01/25 03:04:14;;;;;;;5.72;2.70;;;2.60;83.40;;;;;;5038023;28;20174;-81
2021/01/25 03:06:42;;;;;;;3.78;2.47;;;2.50;83.70;;;;;;5038976;28;20166;-81
2021/01/25 03:09:08;;;;;;;7.60;2.90;;;2.50;83.40;;;;;;5038591;28;20275;-81
2021/01/25 03:11:34;;;;;;;6.07;3.30;;;2.60;83.00;;;;;;5038152;28;20604;-81
2021/01/25 03:14:08;;;;;;;7.45;3.05;;;2.60;83.00;;;;;;5038204;28;20265;-81
2021/01/25 03:16:34;;;;;;;4.40;3.15;;;2.50;83.10;;;;;;5037766;28;20200;-81
2021/01/25 03:19:00;;;;;;;6.00;3.25;;;2.50;83.70;;;;;;5038039;28;20193;-81
2021/01/25 03:21:26;;;;;;;10.27;3.30;;;2.50;83.90;;;;;;5037536;28;20177;-81
2021/01/25 03:23:52;;;;;;;6.60;3.53;;;2.50;84.50;;;;;;5038407;28;20519;-81
2021/01/25 03:26:18;;;;;;;13.27;4.15;;;2.50;84.90;;;;;;5038101;28;20669;-81
2021/01/25 03:28:44;;;;;;;5.40;3.28;;;2.50;85.80;;;;;;5037935;28;20569;-81
2021/01/25 03:31:10;;;;;;;7.80;3.50;;;2.50;87.00;;;;;;5037408;28;20170;-81
2021/01/25 03:33:36;;;;;;;7.77;4.03;;;2.50;87.30;;;;;;5037492;28;20473;-81
2021/01/25 03:36:02;;;;;;;6.03;3.67;;;2.50;88.50;;;;;;5038628;28;20260;-81
2021/01/25 03:38:28;;;;;;;8.98;3.80;;;2.50;89.80;;;;;;5037908;28;20244;-81
2021/01/25 03:40:54;;;;;;;4.93;2.83;;;2.50;90.30;;;;;;5037899;28;20173;-81
2021/01/25 03:43:19;;;;;;;12.23;3.47;;;2.50;91.10;;;;;;5036909;28;20452;-81
2021/01/25 03:45:45;;;;;;;6.77;3.70;;;2.50;91.80;;;;;;5037443;28;20717;-81
2021/01/25 03:48:11;;;;;;;10.40;3.63;;;2.40;92.60;;;;;;5037791;28;20209;-81
2021/01/25 03:50:37;;;;;;;9.70;4.63;;;2.40;93.00;;;;;;5037295;28;20416;-81
2021/01/25 03:53:03;;;;;;;7.00;4.33;;;2.30;93.80;;;;;;5036963;28;20447;-81
2021/01/25 03:55:29;;;;;;;8.73;3.88;;;2.30;94.20;;;;;;5037079;28;20443;-81
2021/01/25 03:57:56;;;;;;;6.60;3.90;;;2.20;94.60;;;;;;5036323;28;20280;-81
2021/01/25 04:00:22;;;;;;;12.73;4.30;;;2.20;95.00;;;;;;5036006;28;20283;-81
2021/01/25 04:02:48;;;;;;;5.80;3.80;;;2.10;95.10;;;;;;5099405;22;20271;-79
2021/01/25 04:05:14;;;;;;;10.83;4.30;;;2.00;95.60;;;;;;5023581;28;20154;-79
2021/01/25 04:07:40;;;;;;;10.75;4.38;;;2.10;95.90;;;;;;5040210;28;20702;-80
2021/01/25 04:10:07;;;;;;;7.10;4.43;;;2.10;96.00;;;;;;5024823;28;20170;-80
2021/01/25 04:12:33;;;;;;;9.55;4.20;;;2.10;96.00;;;;;;5042330;28;20260;-79
2021/01/25 04:14:59;;;;;;;11.10;4.65;;;2.10;96.30;;;;;;5024566;28;20208;-79
2021/01/25 04:17:26;;;;;;;7.47;4.55;;;2.00;96.70;;;;;;5024107;28;20623;-79
2021/01/25 04:19:51;;;;;;;9.07;4.30;;;1.90;96.90;;;;;;5024210;28;20642;-79
2021/01/25 04:22:17;;;;;;;18.30;5.97;;;1.90;97.30;;;;;;5024279;28;20216;-79
2021/01/25 04:24:43;;;;;;;6.50;4.72;;;2.00;97.30;;;;;;5024618;28;20173;-79
2021/01/25 04:27:12;;;;;;;8.27;4.70;;;1.90;97.30;;;;;;5024246;28;20174;-80
2021/01/25 04:29:42;;;;;;;12.85;4.43;;;2.00;97.20;;;;;;5024414;28;20980;-80
2021/01/25 04:32:09;;;;;;;10.38;5.00;;;2.00;97.30;;;;;;5024415;28;20170;-79
2021/01/25 04:34:35;;;;;;;12.13;4.75;;;2.00;97.10;;;;;;5024519;28;20681;-79
2021/01/25 04:37:01;;;;;;;12.50;4.83;;;2.00;97.20;;;;;;5025368;28;20178;-80
2021/01/25 04:39:27;;;;;;;12.88;5.38;;;1.90;97.10;;;;;;5024171;28;20515;-79
2021/01/25 04:41:52;;;;;;;10.00;4.57;;;2.00;97.10;;;;;;5024970;28;20197;-79
2021/01/25 04:44:22;;;;;;;7.90;3.93;;;2.00;97.10;;;;;;5027615;28;20409;-79
2021/01/25 04:46:48;;;;;;;15.63;4.72;;;2.00;97.10;;;;;;5028263;28;20937;-79
2021/01/25 04:49:14;;;;;;;9.73;4.50;;;2.00;97.10;;;;;;5028006;28;20212;-80
2021/01/25 04:51:41;;;;;;;10.45;5.05;;;2.00;97.20;;;;;;5027319;28;20174;-80
2021/01/25 04:54:08;;;;;;;10.50;5.20;;;1.90;97.20;;;;;;5027306;28;20170;-80
2021/01/25 04:56:35;;;;;;;10.55;5.22;;;1.90;97.50;;;;;;5027955;28;20185;-81
2021/01/25 04:59:02;;;;;;;9.68;4.50;;;1.90;97.50;;;;;;5025952;28;20193;-81
2021/01/25 05:01:28;;;;;;;10.63;5.22;;;1.90;97.60;;;;;;5027074;28;20256;-81
2021/01/25 05:03:53;;;;;;;10.53;5.60;;;1.90;97.50;;;;;;5026916;28;20587;-84
2021/01/25 05:06:19;;;;;;;14.20;6.10;;;1.90;97.30;;;;;;5022717;28;20401;-82
2021/01/25 05:08:46;;;;;;;14.63;4.85;;;2.00;97.30;;;;;;5026613;28;20189;-82
2021/01/25 05:11:16;;;;;;;15.23;6.07;;;1.90;97.30;;;;;;5027659;28;20261;-82
2021/01/25 05:13:42;;;;;;;11.15;6.43;;;1.90;97.30;;;;;;5025331;28;20174;-82
2021/01/25 05:16:17;;;;;;;9.20;5.45;;;1.90;97.40;;;;;;5016067;28;20182;-83
2021/01/25 05:18:43;;;;;;;10.63;5.50;;;1.90;97.50;;;;;;5005279;28;20276;-82
2021/01/25 05:21:12;;;;;;;12.43;5.65;;;1.90;97.80;;;;;;5005168;28;20201;-82
2021/01/25 05:23:40;;;;;;;10.88;5.72;;;1.90;97.90;;;;;;5006559;28;20240;-82
2021/01/25 05:26:07;;;;;;;11.43;6.10;;;2.00;97.90;;;;;;5006747;28;20174;-82
2021/01/25 05:28:43;;;;;;;10.95;6.20;;;2.00;97.80;;;;;;5008892;28;20214;-82
2021/01/25 05:31:23;;;;;;;11.80;6.32;;;2.00;97.50;;;;;;5007878;28;20239;-81
2021/01/25 05:33:50;;;;;;;16.65;6.57;;;2.00;97.80;;;;;;5006104;28;20198;-80
2021/01/25 05:36:25;;;;;;;12.65;6.25;;;2.00;97.80;;;;;;5006973;28;20182;-80
2021/01/25 05:38:52;;;;;;;13.82;7.13;;;1.90;98.00;;;;;;5009418;28;20201;-80
2021/01/25 05:41:21;;;;;;;11.43;6.43;;;2.00;98.10;;;;;;5009586;28;20182;-80
2021/01/25 05:43:48;;;;;;;13.95;7.47;;;2.00;98.10;;;;;;5007409;28;20206;-80
2021/01/25 05:46:16;;;;;;;12.60;6.88;;;2.00;98.00;;;;;;5006638;28;20225;-82
2021/01/25 05:48:42;;;;;;;16.30;7.55;;;2.00;98.00;;;;;;5005390;28;20205;-81
2021/01/25 05:51:17;;;;;;;13.23;6.85;;;2.10;97.90;;;;;;5005648;28;20174;-81
2021/01/25 05:53:45;;;;;;;16.05;7.15;;;2.10;97.90;;;;;;5004668;28;20313;-79
2021/01/25 05:56:13;;;;;;;15.02;7.47;;;2.10;97.90;;;;;;5002583;28;20646;-78
2021/01/25 05:58:40;;;;;;;12.82;7.90;;;2.10;97.90;;;;;;5003411;28;20579;-78
2021/01/25 06:01:06;;;;;;;16.00;7.18;;;2.10;97.90;;;;;;5004479;28;20232;-78
2021/01/25 06:03:38;;;;;;;14.18;7.35;;;2.10;97.80;;;;;;5003324;28;20207;-79
2021/01/25 06:06:08;;;;;;;14.20;6.75;;;2.20;97.80;;;;;;5002230;28;20178;-78
2021/01/25 06:08:52;;;;;;;13.90;7.78;;;2.20;97.60;;;;;;5004109;28;20186;-79
2021/01/25 06:11:22;;;;;;;16.80;8.00;;;2.20;97.40;;;;;;5002596;28;20194;-78
2021/01/25 06:14:13;;;;;;;16.13;8.73;;;2.20;97.30;;;;;;5004006;28;20170;-78
2021/01/25 06:16:45;;;;;;;17.33;7.53;;;2.20;97.30;;;;;;5003025;28;20217;-79
2021/01/25 06:19:11;;;;;;;18.65;8.38;;;2.10;97.40;;;;;;5002852;28;20687;-78
2021/01/25 06:21:40;;;;;;;19.90;9.13;;;2.10;97.40;;;;;;5003357;28;20319;-79
2021/01/25 06:24:12;;;;;;;16.90;8.00;;;2.10;97.50;;;;;;5004086;28;20597;-79
2021/01/25 06:26:39;;;;;;;26.05;10.18;;;2.10;97.40;;;;;;5002944;28;20742;-79
2021/01/25 06:29:06;;;;;;;21.60;8.90;;;2.00;97.30;;;;;;5002719;28;20191;-79
2021/01/25 06:31:42;;;;;;;14.70;8.27;;;2.00;97.30;;;;;;5003388;28;20171;-78
2021/01/25 06:34:10;;;;;;;17.73;8.60;;;2.00;97.10;;;;;;5003302;28;20193;-78
2021/01/25 06:36:41;;;;;;;24.27;8.70;;;2.10;96.90;;;;;;5003581;28;20195;-79
2021/01/25 06:39:08;;;;;;;14.68;8.00;;;2.10;96.80;;;;;;5004225;28;20194;-79
2021/01/25 06:41:39;;;;;;;12.77;7.05;;;2.00;96.70;;;;;;5003850;28;20182;-79
2021/01/25 06:44:06;;;;;;;18.27;8.57;;;2.00;96.50;;;;;;5004006;28;20178;-79
2021/01/25 06:46:35;;;;;;;17.63;9.40;;;2.00;96.50;;;;;;5003766;28;20185;-79
2021/01/25 06:49:04;;;;;;;18.63;9.18;;;2.00;96.60;;;;;;5003900;28;20210;-79
2021/01/25 06:51:29;;;;;;;17.27;9.60;;;2.10;96.50;;;;;;5004496;28;20177;-79
2021/01/25 06:54:01;;;;;;;14.23;8.60;;;2.10;96.40;;;;;;5004479;28;20174;-79
2021/01/25 06:56:42;;;;;;;21.50;10.15;;;2.00;96.40;;;;;;5003913;28;20421;-79
2021/01/25 06:59:09;;;;;;;26.15;10.88;;;2.00;96.60;;;;;;5004650;28;20541;-79
2021/01/25 07:01:35;;;;;;;16.75;8.63;;;2.00;96.60;;;;;;5003842;28;20221;-79
2021/01/25 07:04:02;;;;;;;14.55;7.55;;;2.00;96.60;;;;;;5005017;28;20170;-79
2021/01/25 07:06:37;;;;;;;35.75;10.35;;;2.00;96.70;;;;;;5003256;28;20167;-78
2021/01/25 07:09:04;;;;;;;19.45;9.68;;;2.00;96.70;;;;;;5004117;28;20190;-78
2021/01/25 07:11:31;;;;;;;21.90;9.02;;;2.00;96.90;;;;;;5004592;28;20261;-79
2021/01/25 07:13:58;;;;;;;20.00;8.93;;;2.00;97.00;;;;;;5003539;28;20178;-79
2021/01/25 07:16:24;;;;;;;17.63;9.73;;;2.00;97.00;;;;;;5004380;28;20179;-79
2021/01/25 07:18:51;;;;;;;28.50;9.45;;;2.00;97.10;;;;;;5004407;28;20202;-79
2021/01/25 07:21:18;;;;;;;26.40;10.77;;;2.10;97.10;;;;;;5003941;28;20179;-79
2021/01/25 07:23:46;;;;;;;27.23;11.82;;;2.10;97.20;;;;;;4999679;28;20206;-84
2021/01/25 07:26:13;;;;;;;27.42;13.70;;;2.10;97.30;;;;;;4995741;28;20523;-84
2021/01/25 07:28:40;;;;;;;21.77;10.93;;;2.20;97.30;;;;;;5013675;28;20431;-84
2021/01/25 07:31:06;;;;;;;30.83;12.35;;;2.20;97.10;;;;;;4995523;28;20171;-84
2021/01/25 07:33:32;;;;;;;32.00;10.82;;;2.20;97.10;;;;;;4995424;28;20202;-84
2021/01/25 07:35:58;;;;;;;31.17;12.63;;;2.30;97.00;;;;;;4995581;28;20209;-84
2021/01/25 07:38:28;;;;;;;30.63;12.35;;;2.30;97.00;;;;;;4995826;28;20276;-84
2021/01/25 07:40:58;;;;;;;24.77;11.73;;;2.30;96.80;;;;;;4995621;28;20258;-84
2021/01/25 07:43:31;;;;;;;20.98;11.05;;;2.40;96.70;;;;;;4995472;28;20194;-84
2021/01/25 07:46:04;;;;;;;18.80;10.05;;;2.40;96.40;;;;;;4995506;28;20276;-84
2021/01/25 07:48:30;;;;;;;21.98;9.60;;;2.40;96.30;;;;;;4994857;28;20567;-84
2021/01/25 07:50:59;;;;;;;20.80;9.17;;;2.30;96.40;;;;;;4995783;28;20174;-84
2021/01/25 07:53:32;;;;;;;19.35;9.60;;;2.40;96.60;;;;;;4995959;28;20399;-84
2021/01/25 07:55:58;;;;;;;23.15;9.55;;;2.40;96.60;;;;;;4995891;28;20171;-84
2021/01/25 07:58:24;;;;;;;20.60;9.30;;;2.50;96.60;;;;;;4995527;28;20220;-84
2021/01/25 08:00:50;;;;;;;20.47;11.20;;;2.50;96.60;;;;;;4995685;28;20560;-84
2021/01/25 08:03:30;;;;;;;17.83;9.80;;;2.50;96.80;;;;;;4995500;28;20384;-84
2021/01/25 08:06:00;;;;;;;18.60;9.52;;;2.50;97.00;;;;;;4996680;28;20170;-83
2021/01/25 08:08:30;;;;;;;18.15;9.23;;;2.50;97.20;;;;;;4997953;28;20766;-82
2021/01/25 08:10:57;;;;;;;18.58;9.30;;;2.50;97.10;;;;;;4997331;28;20282;-83
2021/01/25 08:13:42;;;;;;;21.13;9.10;;;2.60;97.10;;;;;;4997416;28;20220;-83
2021/01/25 08:16:19;;;;;;;23.60;10.82;;;2.50;97.10;;;;;;4998088;28;20635;-83
2021/01/25 08:19:00;;;;;;;24.05;9.82;;;2.40;97.70;;;;;;4999813;28;20226;-83
2021/01/25 08:21:32;;;;;;;21.42;10.20;;;2.40;98.00;;;;;;5000804;28;20279;-83
2021/01/25 08:24:01;;;;;;;19.17;9.55;;;2.40;98.20;;;;;;5000463;28;20345;-83
2021/01/25 08:26:29;;;;;;;18.88;11.73;;;2.40;98.50;;;;;;4999971;28;20190;-83
2021/01/25 08:28:59;;;;;;;25.65;10.60;;;2.30;98.70;;;;;;5000170;28;20693;-82
2021/01/25 08:31:36;;;;;;;29.45;9.60;;;2.40;98.80;;;;;;4999794;28;20634;-83
2021/01/25 08:34:14;;;;;;;15.05;9.15;;;2.40;98.90;;;;;;4999478;28;20198;-83
2021/01/25 08:36:40;;;;;;;22.52;10.05;;;2.40;98.90;;;;;;4999686;28;20258;-83
2021/01/25 08:39:13;;;;;;;22.63;10.38;;;2.40;99.10;;;;;;4999252;28;20822;-84
2021/01/25 08:41:49;;;;;;;17.40;9.70;;;2.50;99.00;;;;;;4999206;28;20174;-84
2021/01/25 08:44:17;;;;;;;32.17;10.70;;;2.50;99.10;;;;;;4999196;28;20174;-83
2021/01/25 08:46:44;;;;;;;27.40;10.30;;;2.50;99.00;;;;;;4999283;28;20547;-84
2021/01/25 08:49:18;;;;;;;20.42;10.18;;;2.60;99.10;;;;;;4999135;28;20218;-83
2021/01/25 08:51:55;;;;;;;19.23;9.80;;;2.70;98.80;;;;;;4999138;28;20172;-83
2021/01/25 08:54:25;;;;;;;24.27;9.85;;;2.70;98.80;;;;;;4998675;28;20202;-83
2021/01/25 08:56:50;;;;;;;31.35;12.70;;;2.80;98.70;;;;;;4998784;28;20595;-83
2021/01/25 08:59:28;;;;;;;27.77;12.70;;;2.80;98.70;;;;;;4998916;28;20191;-83
2021/01/25 09:01:54;;;;;;;21.98;10.52;;;2.90;98.50;;;;;;4998684;28;21016;-83
2021/01/25 09:04:20;;;;;;;29.38;10.38;;;3.00;98.20;;;;;;4999124;28;20528;-83
2021/01/25 09:06:54;;;;;;;25.00;11.55;;;3.00;97.90;;;;;;4998702;28;20178;-84
2021/01/25 09:09:20;;;;;;;26.60;9.50;;;3.10;97.80;;;;;;4998748;28;20190;-83
2021/01/25 09:11:47;;;;;;;17.35;10.27;;;3.20;97.60;;;;;;4998649;28;20178;-83
2021/01/25 09:14:17;;;;;;;21.05;10.10;;;3.10;97.50;;;;;;4997976;28;20263;-83
2021/01/25 09:16:44;;;;;;;25.55;11.48;;;3.20;97.40;;;;;;4997852;28;20182;-83
2021/01/25 09:19:10;;;;;;;24.35;11.38;;;3.20;97.30;;;;;;4998988;28;20579;-83
2021/01/25 09:21:36;;;;;;;23.02;11.85;;;3.30;97.20;;;;;;4998511;28;20661;-85
2021/01/25 09:24:02;;;;;;;23.45;10.93;;;3.40;97.00;;;;;;4998509;28;20217;-83
2021/01/25 09:26:28;;;;;;;21.98;10.85;;;3.40;97.00;;;;;;4998260;28;20257;-83
2021/01/25 09:28:54;;;;;;;18.57;10.43;;;3.50;96.90;;;;;;4997422;28;20619;-83
2021/01/25 09:31:22;;;;;;;25.63;10.30;;;3.50;96.60;;;;;;4997302;28;20479;-83
2021/01/25 09:33:48;;;;;;;23.05;10.63;;;3.50;96.50;;;;;;4998158;28;20418;-83
2021/01/25 09:36:14;;;;;;;19.70;10.18;;;3.50;96.70;;;;;;4998805;28;20799;-83
2021/01/25 09:38:39;;;;;;;18.63;9.73;;;3.60;96.70;;;;;;4998343;28;20197;-83
2021/01/25 09:41:05;;;;;;;23.73;9.97;;;3.70;96.30;;;;;;4998212;28;20417;-83
2021/01/25 09:43:31;;;;;;;37.63;9.80;;;3.70;95.90;;;;;;4997948;28;20473;-83
2021/01/25 09:45:57;;;;;;;21.23;10.57;;;3.80;95.90;;;;;;4998417;28;20751;-83
2021/01/25 09:48:22;;;;;;;22.93;9.90;;;3.80;95.60;;;;;;4997843;28;20190;-83
2021/01/25 09:50:48;;;;;;;17.73;9.87;;;3.80;95.40;;;;;;4997694;28;20177;-85
2021/01/25 09:53:17;;;;;;;17.90;10.47;;;3.90;95.20;;;;;;4997318;28;20417;-84
2021/01/25 09:55:43;;;;;;;21.73;10.77;;;3.80;95.30;;;;;;4997049;28;20406;-83
2021/01/25 09:58:09;;;;;;;25.50;10.65;;;3.80;95.50;;;;;;4997597;28;20277;-83
2021/01/25 10:00:34;;;;;;;20.07;10.30;;;3.80;95.50;;;;;;5015468;28;20177;-83
2021/01/25 10:03:00;;;;;;;18.00;8.90;;;3.90;95.50;;;;;;5000483;28;20234;-79
2021/01/25 10:05:26;;;;;;;21.57;9.70;;;3.90;95.50;;;;;;5002402;28;20227;-84
2021/01/25 10:07:52;;;;;;;36.40;12.00;;;3.90;95.30;;;;;;4996765;28;20464;-84
2021/01/25 10:10:18;;;;;;;18.60;9.30;;;3.80;95.50;;;;;;4997284;28;20437;-84
2021/01/25 10:12:44;;;;;;;16.45;9.25;;;3.90;95.80;;;;;;4998814;28;20177;-83
2021/01/25 10:15:13;;;;;;;27.60;10.23;;;3.90;95.80;;;;;;4999624;28;20258;-83
2021/01/25 10:17:39;;;;;;;23.45;10.98;;;4.00;95.70;;;;;;4998795;28;20431;-83
2021/01/25 10:20:06;;;;;;;26.63;10.77;;;4.00;95.50;;;;;;4998806;28;20175;-83
2021/01/25 10:22:31;;;;;;;17.13;8.50;;;3.90;95.60;;;;;;4998278;28;20688;-84
2021/01/25 10:24:57;;;;;;;22.57;10.40;;;3.90;95.80;;;;;;4998658;28;20261;-83
2021/01/25 10:27:23;;;;;;;19.17;9.70;;;3.90;95.80;;;;;;4998182;28;20957;-84
2021/01/25 10:29:49;;;;;;;20.00;9.67;;;4.00;95.80;;;;;;4997866;28;20177;-83
2021/01/25 10:32:15;;;;;;;28.10;10.77;;;4.00;95.80;;;;;;4997375;28;20429;-84
2021/01/25 10:34:42;;;;;;;27.13;10.93;;;4.00;95.80;;;;;;4997388;28;21001;-84
2021/01/25 10:37:09;;;;;;;22.52;9.95;;;4.10;95.50;;;;;;4997127;28;20230;-83
2021/01/25 10:39:35;;;;;;;23.45;10.80;;;4.10;95.50;;;;;;4997259;28;20274;-83
2021/01/25 10:42:00;;;;;;;22.05;11.73;;;4.20;95.50;;;;;;4996794;28;20619;-84
2021/01/25 10:44:26;;;;;;;21.60;9.90;;;4.30;95.70;;;;;;4997184;28;20171;-84
2021/01/25 10:46:52;;;;;;;22.83;10.63;;;4.30;95.10;;;;;;4997473;28;20496;-83
2021/01/25 10:49:18;;;;;;;18.67;9.43;;;4.30;94.50;;;;;;4997001;28;20218;-84
2021/01/25 10:51:43;;;;;;;19.50;10.00;;;4.40;94.50;;;;;;4996106;28;20198;-84
2021/01/25 10:54:09;;;;;;;19.87;9.90;;;4.40;94.60;;;;;;4996637;28;20201;-84
2021/01/25 10:56:35;;;;;;;18.10;9.65;;;4.40;94.40;;;;;;4996959;28;20167;-83
2021/01/25 10:59:01;;;;;;;34.63;12.20;;;4.40;94.00;;;;;;4997039;28;20712;-84
2021/01/25 11:01:27;;;;;;;24.10;10.57;;;4.40;93.90;;;;;;4996925;28;20413;-84
2021/01/25 11:03:52;;;;;;;18.17;10.23;;;4.30;94.10;;;;;;4999518;28;20527;-82
2021/01/25 11:06:19;;;;;;;16.20;8.60;;;4.30;94.10;;;;;;4997524;28;20174;-84
2021/01/25 11:08:45;;;;;;;33.50;11.43;;;4.30;94.70;;;;;;5014014;28;20209;-85
2021/01/25 11:11:10;;;;;;;20.98;11.35;;;4.30;94.90;;;;;;4996159;28;20241;-85
2021/01/25 11:13:37;;;;;;;19.20;9.20;;;4.30;94.90;;;;;;4996501;28;20175;-83
2021/01/25 11:16:03;;;;;;;22.23;10.30;;;4.30;95.30;;;;;;5000096;28;20425;-82
2021/01/25 11:18:29;;;;;;;25.23;10.55;;;4.40;95.50;;;;;;4998143;28;20213;-84
2021/01/25 11:20:58;;;;;;;17.27;9.67;;;4.50;95.20;;;;;;4998835;28;20265;-84
2021/01/25 11:23:24;;;;;;;22.10;10.23;;;4.60;94.80;;;;;;4996087;28;20194;-85
2021/01/25 11:25:50;;;;;;;19.45;10.52;;;4.70;95.00;;;;;;4996179;28;20171;-83
2021/01/25 11:28:15;;;;;;;20.43;9.87;;;4.80;94.10;;;;;;4996231;28;20225;-84
2021/01/25 11:30:41;;;;;;;22.60;10.60;;;4.90;93.50;;;;;;4996114;28;20838;-83
2021/01/25 11:33:07;;;;;;;21.37;9.20;;;4.90;93.40;;;;;;4996452;28;20174;-84
2021/01/25 11:35:33;;;;;;;21.73;10.60;;;4.90;93.90;;;;;;4996793;28;20650;-84
2021/01/25 11:37:58;;;;;;;19.70;9.40;;;4.90;94.40;;;;;;4996251;28;20199;-85
2021/01/25 11:40:24;;;;;;;18.50;9.13;;;4.90;94.20;;;;;;4998351;28;20879;-84
2021/01/25 11:42:50;;;;;;;23.03;11.77;;;5.00;94.40;;;;;;5000389;28;20659;-83
2021/01/25 11:45:16;;;;;;;28.20;10.10;;;5.10;94.00;;;;;;4997699;28;20534;-83
2021/01/25 11:47:41;;;;;;;21.70;9.20;;;5.10;93.90;;;;;;4996375;28;20194;-84
2021/01/25 11:50:11;;;;;;;23.03;10.67;;;5.20;94.20;;;;;;4995979;28;20202;-85
2021/01/25 11:52:37;;;;;;;22.23;10.73;;;5.20;94.30;;;;;;4996700;28;20833;-85
2021/01/25 11:55:04;;;;;;;24.20;10.60;;;5.20;93.70;;;;;;4999580;28;20182;-85
2021/01/25 11:57:31;;;;;;;30.80;10.73;;;5.20;93.90;;;;;;5000319;28;20771;-80
2021/01/25 11:59:57;;;;;;;37.85;12.25;;;5.20;93.50;;;;;;5004937;28;20174;-82
2021/01/25 12:02:24;;;;;;;40.90;14.20;;;5.20;93.20;;;;;;5003832;28;20210;-80
2021/01/25 12:04:50;;;;;;;35.47;12.73;;;5.20;93.40;;;;;;5001629;28;20417;-83
2021/01/25 12:07:17;;;;;;;35.47;14.52;;;5.30;93.40;;;;;;5001026;28;20186;-83
2021/01/25 12:09:43;;;;;;;27.00;12.10;;;5.30;93.40;;;;;;5000864;28;20171;-83
2021/01/25 12:12:09;;;;;;;30.92;11.57;;;5.30;93.40;;;;;;5001738;28;20251;-83
2021/01/25 12:14:35;;;;;;;27.17;9.90;;;5.40;93.30;;;;;;5001397;28;20206;-83
2021/01/25 12:17:01;;;;;;;20.00;8.17;;;5.40;93.40;;;;;;5000118;28;20859;-83
2021/01/25 12:19:27;;;;;;;14.23;8.00;;;5.40;93.20;;;;;;5000621;28;20200;-83
2021/01/25 12:21:52;;;;;;;15.80;7.80;;;5.40;92.70;;;;;;5000899;28;20512;-83
2021/01/25 12:24:18;;;;;;;13.00;6.23;;;5.40;93.00;;;;;;5001597;28;20228;-80
2021/01/25 12:26:44;;;;;;;18.17;6.80;;;5.50;93.50;;;;;;5003206;28;20174;-80
2021/01/25 12:29:10;;;;;;;12.13;6.23;;;5.50;93.10;;;;;;5003128;28;20190;-84
2021/01/25 12:31:35;;;;;;;16.60;7.40;;;5.50;93.20;;;;;;5002812;28;20817;-79
2021/01/25 12:34:01;;;;;;;16.70;7.00;;;5.50;93.40;;;;;;5003050;28;20181;-82
2021/01/25 12:36:27;;;;;;;20.77;6.60;;;5.60;93.20;;;;;;4999952;28;20434;-84
2021/01/25 12:38:53;;;;;;;15.30;7.80;;;5.60;93.40;;;;;;4999233;28;20469;-84
2021/01/25 12:41:18;;;;;;;14.83;7.23;;;5.60;93.20;;;;;;5002823;28;20178;-84
2021/01/25 12:43:44;;;;;;;14.90;7.23;;;5.70;93.40;;;;;;5000540;28;20206;-84
2021/01/25 12:46:10;;;;;;;20.73;8.33;;;5.60;92.10;;;;;;4999615;28;20262;-84
2021/01/25 12:48:36;;;;;;;17.42;7.88;;;5.60;93.30;;;;;;4999352;28;20910;-84